Time;durP1;ratioP1;P1;durP2;ratioP2;P2;SDS_P1;SDS_P2;PMS_P1;PMS_P2;Temp;Humidity;BMP_temperature;BMP_pressure;BME280_temperature;BME280_humidity;BME280_pressure;Samples;Min_cycle;Max_cycle;Signal;HPM_P1;HPM_P2
2022/05/25 00:02:13;;;;;;;6.30;5.90;;;11.00;99.90;;;;;;5013594;28;20184;-67
2022/05/25 00:04:39;;;;;;;6.47;6.07;;;11.00;99.90;;;;;;5012967;28;20179;-66
2022/05/25 00:07:05;;;;;;;6.23;5.83;;;10.90;99.90;;;;;;4995846;28;20667;-67
2022/05/25 00:09:30;;;;;;;5.80;5.50;;;10.80;99.90;;;;;;5013504;28;20177;-67
2022/05/25 00:11:56;;;;;;;6.43;5.93;;;10.80;99.90;;;;;;5012962;28;20511;-67
2022/05/25 00:14:22;;;;;;;6.40;6.00;;;10.80;99.90;;;;;;5012897;28;20208;-68
2022/05/25 00:16:48;;;;;;;5.97;5.67;;;10.80;99.90;;;;;;5013161;28;20603;-68
2022/05/25 00:21:58;;;;;;;6.13;5.80;;;10.70;99.90;;;;;;5013359;28;20198;-68
2022/05/25 00:24:23;;;;;;;6.60;6.00;;;10.70;99.90;;;;;;5012692;28;20176;-67
2022/05/25 00:26:49;;;;;;;6.27;5.97;;;10.70;99.90;;;;;;5013117;28;20249;-67
2022/05/25 00:29:15;;;;;;;5.90;5.60;;;10.70;99.90;;;;;;5013024;28;20173;-67
2022/05/25 00:31:40;;;;;;;6.47;6.07;;;10.70;99.90;;;;;;4995281;28;20176;-67
2022/05/25 00:34:07;;;;;;;6.40;6.00;;;10.70;99.90;;;;;;5012813;28;20273;-68
2022/05/25 00:36:32;;;;;;;6.20;5.90;;;10.70;99.90;;;;;;4995238;28;20288;-68
2022/05/25 00:38:58;;;;;;;6.60;6.00;;;10.60;99.90;;;;;;5012981;28;20651;-67
2022/05/25 00:41:28;;;;;;;7.13;6.73;;;10.60;99.90;;;;;;5012735;28;20180;-67
2022/05/25 00:43:54;;;;;;;7.43;6.83;;;10.60;99.90;;;;;;5012376;28;20180;-67
2022/05/25 00:46:22;;;;;;;7.23;6.63;;;10.60;99.90;;;;;;5012538;28;20184;-67
2022/05/25 00:48:52;;;;;;;6.53;6.03;;;10.50;99.90;;;;;;5012061;28;20172;-67
2022/05/25 00:51:27;;;;;;;6.47;5.97;;;10.50;99.90;;;;;;4994902;28;20215;-68
2022/05/25 00:54:00;;;;;;;6.37;5.97;;;10.50;99.90;;;;;;4975133;28;20207;-67
2022/05/25 00:56:27;;;;;;;7.00;6.60;;;10.50;99.90;;;;;;4993143;28;20173;-68
2022/05/25 00:58:59;;;;;;;6.70;6.30;;;10.50;99.90;;;;;;4975719;28;20212;-67
2022/05/25 01:01:26;;;;;;;7.03;6.63;;;10.50;99.90;;;;;;5007109;28;20215;-67
2022/05/25 01:03:52;;;;;;;9.47;6.67;;;10.50;99.90;;;;;;5012051;28;20726;-68
2022/05/25 01:06:36;;;;;;;7.00;6.50;;;10.50;99.90;;;;;;5012322;28;20267;-67
2022/05/25 01:09:25;;;;;;;7.37;6.70;;;10.40;99.90;;;;;;5012290;28;20187;-68
2022/05/25 01:12:09;;;;;;;7.50;7.07;;;10.40;99.90;;;;;;5012219;28;20234;-66
2022/05/25 01:15:03;;;;;;;7.33;6.83;;;10.40;99.90;;;;;;4993652;28;20199;-66
2022/05/25 01:17:46;;;;;;;7.77;7.27;;;10.30;99.90;;;;;;5012411;28;20214;-67
2022/05/25 01:20:14;;;;;;;8.70;8.07;;;10.30;99.90;;;;;;5012230;28;20184;-67
2022/05/25 01:22:58;;;;;;;7.83;7.13;;;10.30;99.90;;;;;;5012245;28;20176;-67
2022/05/25 01:26:09;;;;;;;6.80;6.30;;;10.20;99.90;;;;;;4992411;28;20259;-68
2022/05/25 01:28:56;;;;;;;6.90;6.50;;;10.20;99.90;;;;;;4997852;28;20222;-67
2022/05/25 01:31:39;;;;;;;7.27;6.77;;;10.20;99.90;;;;;;5012067;28;20214;-67
2022/05/25 01:34:28;;;;;;;7.77;7.07;;;10.20;99.90;;;;;;5011511;28;20235;-66
2022/05/25 01:37:19;;;;;;;7.00;6.50;;;10.20;99.90;;;;;;4994246;28;20192;-67
2022/05/25 01:39:53;;;;;;;7.57;6.97;;;10.20;99.90;;;;;;5011775;28;20434;-68
2022/05/25 01:42:30;;;;;;;7.07;6.57;;;10.10;99.90;;;;;;5012005;28;20255;-67
2022/05/25 01:45:01;;;;;;;7.27;6.67;;;10.10;99.90;;;;;;4993737;28;20188;-67
2022/05/25 01:47:30;;;;;;;7.13;6.50;;;10.10;99.90;;;;;;4993072;28;20196;-67
2022/05/25 01:50:10;;;;;;;7.67;6.97;;;10.00;99.90;;;;;;5011422;28;20183;-67
2022/05/25 01:52:55;;;;;;;7.37;6.63;;;10.00;99.90;;;;;;5012006;28;20188;-67
2022/05/25 01:55:32;;;;;;;7.73;7.23;;;10.00;99.90;;;;;;5011275;28;20346;-68
2022/05/25 01:58:03;;;;;;;7.33;6.60;;;9.90;99.90;;;;;;4993870;28;20199;-66
2022/05/25 02:00:39;;;;;;;6.87;6.37;;;10.00;99.90;;;;;;5011182;28;20259;-67
2022/05/25 02:06:17;;;;;;;7.27;6.67;;;10.00;99.90;;;;;;5011259;28;20782;-67
2022/05/25 02:09:05;;;;;;;8.10;7.40;;;10.00;99.90;;;;;;5011319;28;20185;-68
2022/05/25 02:11:47;;;;;;;7.73;7.23;;;10.00;99.90;;;;;;4993715;28;20575;-67
2022/05/25 02:14:34;;;;;;;7.80;7.10;;;10.00;99.90;;;;;;5011294;28;20191;-66
2022/05/25 02:17:15;;;;;;;7.33;6.93;;;10.00;99.90;;;;;;5011133;28;20214;-67
2022/05/25 02:19:58;;;;;;;7.37;6.97;;;10.00;99.90;;;;;;5011251;28;20160;-67
2022/05/25 02:22:47;;;;;;;7.20;6.60;;;10.00;99.90;;;;;;5011195;28;20339;-67
2022/05/25 02:25:33;;;;;;;7.47;6.97;;;10.00;99.90;;;;;;5011215;28;20179;-67
2022/05/25 02:28:11;;;;;;;7.50;6.90;;;10.00;99.90;;;;;;4993832;28;20209;-68
2022/05/25 02:30:43;;;;;;;7.03;6.63;;;10.00;99.90;;;;;;4997987;28;20181;-67
2022/05/25 02:33:15;;;;;;;7.30;6.80;;;10.00;99.90;;;;;;4997877;28;20466;-68
2022/05/25 02:35:44;;;;;;;16.97;7.63;;;10.00;99.90;;;;;;5014437;28;20398;-67
2022/05/25 02:38:10;;;;;;;7.30;6.87;;;10.10;99.90;;;;;;5015353;28;20195;-67
2022/05/25 02:40:38;;;;;;;10.07;7.33;;;10.00;99.90;;;;;;4997482;28;20172;-67
2022/05/25 02:43:06;;;;;;;7.70;7.10;;;10.00;99.90;;;;;;5015221;28;20255;-67
2022/05/25 02:45:32;;;;;;;7.53;7.10;;;10.00;99.90;;;;;;4997081;28;20184;-67
2022/05/25 02:47:57;;;;;;;7.20;6.70;;;10.00;99.90;;;;;;5014313;28;20195;-67
2022/05/25 02:50:23;;;;;;;9.07;7.43;;;10.00;99.90;;;;;;5015069;28;20184;-68
2022/05/25 02:52:48;;;;;;;7.90;7.20;;;10.00;99.90;;;;;;5015049;28;20258;-68
2022/05/25 02:55:15;;;;;;;7.37;6.70;;;10.00;99.90;;;;;;5014447;28;20291;-67
2022/05/25 02:57:40;;;;;;;8.03;7.33;;;10.00;99.90;;;;;;5014785;28;20242;-66
2022/05/25 03:00:08;;;;;;;7.07;6.67;;;10.00;99.90;;;;;;5014709;28;20168;-67
2022/05/25 03:02:34;;;;;;;7.87;7.27;;;10.00;99.90;;;;;;5014884;28;20187;-67
2022/05/25 03:04:59;;;;;;;7.07;6.67;;;10.00;99.90;;;;;;5014420;28;20596;-66
2022/05/25 03:07:25;;;;;;;7.40;6.80;;;10.00;99.90;;;;;;5014789;28;20284;-68
2022/05/25 03:09:51;;;;;;;7.30;6.57;;;10.00;99.90;;;;;;5014596;28;20658;-67
2022/05/25 03:12:17;;;;;;;7.80;7.00;;;10.10;99.90;;;;;;4997014;28;20249;-67
2022/05/25 03:14:43;;;;;;;7.00;6.60;;;10.10;99.90;;;;;;5014268;28;20204;-67
2022/05/25 03:17:14;;;;;;;6.53;6.13;;;10.10;99.90;;;;;;5014400;28;20250;-67
2022/05/25 03:19:41;;;;;;;6.90;6.40;;;10.10;99.90;;;;;;5014507;28;20172;-67
2022/05/25 03:22:07;;;;;;;6.80;6.40;;;10.10;99.90;;;;;;5014264;28;20172;-67
2022/05/25 03:24:33;;;;;;;7.77;6.83;;;10.10;99.90;;;;;;5014536;28;20523;-67
2022/05/25 03:26:59;;;;;;;6.83;6.43;;;10.10;99.90;;;;;;5014100;28;20208;-67
2022/05/25 03:29:26;;;;;;;6.43;6.03;;;10.10;99.90;;;;;;5014252;28;20186;-67
2022/05/25 03:31:52;;;;;;;7.60;7.00;;;10.10;99.90;;;;;;5014071;28;20599;-68
2022/05/25 03:34:18;;;;;;;7.17;6.77;;;10.10;99.90;;;;;;5014065;28;20228;-67
2022/05/25 03:36:45;;;;;;;7.07;6.47;;;10.10;99.90;;;;;;5014161;28;20274;-68
2022/05/25 03:39:11;;;;;;;8.03;7.43;;;10.00;99.90;;;;;;4995589;28;20566;-67
2022/05/25 03:41:36;;;;;;;7.00;6.50;;;10.00;99.90;;;;;;4996351;28;20257;-68
2022/05/25 03:44:02;;;;;;;6.87;6.37;;;10.00;99.90;;;;;;4995962;28;20627;-67
2022/05/25 03:46:28;;;;;;;7.57;6.80;;;10.00;99.90;;;;;;5014042;28;20198;-67
2022/05/25 03:48:53;;;;;;;7.13;6.53;;;10.00;99.90;;;;;;4996227;28;20184;-67
2022/05/25 03:51:20;;;;;;;6.73;6.33;;;10.00;99.90;;;;;;5014018;28;20589;-67
2022/05/25 03:53:46;;;;;;;7.70;7.17;;;10.00;99.90;;;;;;5013275;28;20171;-67
2022/05/25 03:56:12;;;;;;;6.87;6.43;;;10.00;99.90;;;;;;4996408;28;20168;-67
2022/05/25 03:58:37;;;;;;;7.20;6.70;;;10.00;99.90;;;;;;5013941;28;20164;-67
2022/05/25 04:01:03;;;;;;;7.50;6.93;;;10.00;99.90;;;;;;5013703;28;20275;-67
2022/05/25 04:03:29;;;;;;;7.40;6.90;;;10.00;99.90;;;;;;5013608;28;20223;-67
2022/05/25 04:05:54;;;;;;;7.43;7.00;;;10.00;99.90;;;;;;5013308;28;20222;-66
2022/05/25 04:08:20;;;;;;;7.53;7.03;;;10.00;99.90;;;;;;5013493;28;20192;-66
2022/05/25 04:10:46;;;;;;;6.90;6.50;;;10.00;99.90;;;;;;5013231;28;20283;-66
2022/05/25 04:13:11;;;;;;;7.40;6.80;;;10.10;99.90;;;;;;5013603;28;20179;-67
2022/05/25 04:15:37;;;;;;;7.70;7.10;;;10.10;99.90;;;;;;5012916;28;20207;-67
2022/05/25 04:18:04;;;;;;;7.87;7.27;;;10.10;99.90;;;;;;5013827;28;20204;-67
2022/05/25 04:20:32;;;;;;;7.10;6.50;;;10.10;99.90;;;;;;4995617;28;20207;-67
2022/05/25 04:22:58;;;;;;;11.83;6.50;;;10.20;99.90;;;;;;4995895;28;20192;-66
2022/05/25 04:25:25;;;;;;;8.80;6.47;;;10.30;99.90;;;;;;4995350;28;20550;-66
2022/05/25 04:27:53;;;;;;;6.77;6.07;;;10.40;99.90;;;;;;5012776;28;20243;-66
2022/05/25 04:30:22;;;;;;;8.03;7.30;;;10.40;99.90;;;;;;5013293;28;20180;-66
2022/05/25 04:32:48;;;;;;;6.80;6.43;;;10.40;99.90;;;;;;5012897;28;20184;-66
2022/05/25 04:35:15;;;;;;;6.23;5.93;;;10.50;99.90;;;;;;5013026;28;20622;-66
2022/05/25 04:37:52;;;;;;;6.83;6.33;;;10.60;99.90;;;;;;5012865;28;20207;-66
2022/05/25 04:40:28;;;;;;;6.77;6.23;;;10.80;99.90;;;;;;4995689;28;20168;-66
2022/05/25 04:42:56;;;;;;;6.63;6.13;;;10.90;99.90;;;;;;5012826;28;20172;-66
2022/05/25 04:45:21;;;;;;;6.37;5.77;;;10.90;99.90;;;;;;5012973;28;20183;-66
2022/05/25 04:47:47;;;;;;;6.47;6.03;;;11.00;99.90;;;;;;4994197;28;20199;-67
2022/05/25 04:50:16;;;;;;;6.60;6.00;;;11.20;99.90;;;;;;5012205;28;20234;-67
2022/05/25 04:52:42;;;;;;;6.23;5.83;;;11.40;99.90;;;;;;5012552;28;20599;-67
2022/05/25 04:55:09;;;;;;;7.17;6.33;;;11.60;99.90;;;;;;5002972;28;20200;-67
2022/05/25 04:57:35;;;;;;;6.83;6.43;;;11.80;99.90;;;;;;4992934;28;20193;-67
2022/05/25 05:00:05;;;;;;;7.13;6.07;;;12.10;99.90;;;;;;4992983;28;20232;-67
2022/05/25 05:02:31;;;;;;;5.87;5.50;;;12.30;99.90;;;;;;4995175;28;20764;-67
2022/05/25 05:04:57;;;;;;;5.53;5.13;;;12.50;99.90;;;;;;5012429;28;20186;-67
2022/05/25 05:07:32;;;;;;;5.97;5.47;;;12.70;99.90;;;;;;5012417;28;20283;-67
2022/05/25 05:10:00;;;;;;;5.40;5.00;;;12.90;99.90;;;;;;5012363;28;20204;-67
2022/05/25 05:12:29;;;;;;;5.37;5.07;;;13.10;99.90;;;;;;5012441;28;20180;-67
2022/05/25 05:14:57;;;;;;;5.90;5.40;;;13.30;99.90;;;;;;4992393;28;20200;-67
2022/05/25 05:17:23;;;;;;;6.13;5.63;;;13.30;99.90;;;;;;4992728;28;20649;-67
2022/05/25 05:19:49;;;;;;;6.23;5.80;;;13.40;99.90;;;;;;5011850;28;20325;-67
2022/05/25 05:22:15;;;;;;;5.63;5.23;;;13.60;99.90;;;;;;5012114;28;20207;-67
2022/05/25 05:24:40;;;;;;;5.70;5.37;;;13.60;99.90;;;;;;5011952;28;20659;-67
2022/05/25 05:27:06;;;;;;;6.50;5.90;;;13.60;99.90;;;;;;4994475;28;20625;-67
2022/05/25 05:29:33;;;;;;;6.40;5.80;;;13.60;99.90;;;;;;5012188;28;20176;-67
2022/05/25 05:31:59;;;;;;;6.23;5.83;;;13.60;99.90;;;;;;5012034;28;20246;-67
2022/05/25 05:34:28;;;;;;;5.77;5.47;;;13.60;99.90;;;;;;5011680;28;20569;-67
2022/05/25 05:37:12;;;;;;;7.10;5.73;;;13.60;99.90;;;;;;5011662;28;20208;-67
2022/05/25 05:39:43;;;;;;;6.23;5.70;;;13.80;99.90;;;;;;5011968;28;20550;-67
2022/05/25 05:42:12;;;;;;;5.30;5.00;;;14.10;99.90;;;;;;5011918;28;20271;-67
2022/05/25 05:44:41;;;;;;;5.53;5.03;;;14.30;99.90;;;;;;5011458;28;20168;-67
2022/05/25 05:47:11;;;;;;;4.80;4.50;;;14.30;99.90;;;;;;5007825;28;20283;-67
2022/05/25 05:49:38;;;;;;;5.20;4.80;;;14.70;99.90;;;;;;4998326;28;20286;-67
2022/05/25 05:52:04;;;;;;;5.97;5.47;;;14.90;99.90;;;;;;4992354;28;20176;-67
2022/05/25 05:54:30;;;;;;;5.67;5.27;;;15.10;99.90;;;;;;5011399;28;20196;-67
2022/05/25 05:56:57;;;;;;;5.30;4.87;;;15.40;99.90;;;;;;5011359;28;20196;-67
2022/05/25 05:59:22;;;;;;;5.37;4.73;;;15.70;99.90;;;;;;5011770;28;20164;-67
2022/05/25 06:01:48;;;;;;;4.97;4.60;;;15.80;99.90;;;;;;5010955;28;20235;-67
2022/05/25 06:04:14;;;;;;;4.97;4.40;;;15.90;99.90;;;;;;4998837;28;20220;-67
2022/05/25 06:06:39;;;;;;;5.23;4.93;;;16.10;99.90;;;;;;5007155;28;20196;-67
2022/05/25 06:09:05;;;;;;;5.10;4.70;;;16.10;99.90;;;;;;5011507;28;20180;-67
2022/05/25 06:11:32;;;;;;;5.83;5.33;;;16.20;99.90;;;;;;5011540;28;20656;-67
2022/05/25 06:13:58;;;;;;;5.40;5.10;;;16.20;99.90;;;;;;5011046;28;20220;-67
2022/05/25 06:19:26;;;;;;;4.50;4.30;;;16.70;99.90;;;;;;5011772;28;20171;-67
2022/05/25 06:21:57;;;;;;;4.50;4.10;;;17.10;99.90;;;;;;5011035;28;20203;-67
2022/05/25 06:24:22;;;;;;;4.23;3.93;;;17.30;99.90;;;;;;4989263;28;20550;-67
2022/05/25 06:26:48;;;;;;;4.97;4.20;;;17.30;99.90;;;;;;5011201;28;20187;-67
2022/05/25 06:29:17;;;;;;;4.23;4.03;;;17.20;99.90;;;;;;5011198;28;20180;-67
2022/05/25 06:31:43;;;;;;;4.00;3.70;;;17.20;99.90;;;;;;5011369;28;20562;-67
2022/05/25 06:34:09;;;;;;;4.10;3.80;;;17.50;99.90;;;;;;5010884;28;20195;-67
2022/05/25 06:36:34;;;;;;;3.97;3.70;;;17.70;99.90;;;;;;5011238;28;20734;-67
2022/05/25 06:39:00;;;;;;;4.23;3.83;;;17.80;99.90;;;;;;5009929;28;20181;-67
2022/05/25 06:41:26;;;;;;;4.17;3.80;;;18.10;99.90;;;;;;5011188;28;20252;-67
2022/05/25 06:43:52;;;;;;;3.70;3.50;;;18.40;99.90;;;;;;5010330;28;20230;-67
2022/05/25 06:46:19;;;;;;;3.90;3.70;;;18.70;99.90;;;;;;5010947;28;20192;-68
2022/05/25 06:48:49;;;;;;;4.10;3.83;;;18.90;99.90;;;;;;5011073;28;20504;-67
2022/05/25 06:51:18;;;;;;;5.07;3.87;;;18.60;99.90;;;;;;5011108;28;20168;-67
2022/05/25 06:53:43;;;;;;;4.17;3.90;;;18.90;99.90;;;;;;5010405;28;20168;-67
2022/05/25 06:56:09;;;;;;;3.73;3.43;;;19.00;99.90;;;;;;5010917;28;20222;-67
2022/05/25 06:58:35;;;;;;;3.60;3.40;;;19.40;99.90;;;;;;5010756;28;20180;-67
2022/05/25 07:01:02;;;;;;;3.80;3.20;;;19.60;99.90;;;;;;4993451;28;20183;-67
2022/05/25 07:03:28;;;;;;;3.50;3.30;;;19.60;99.90;;;;;;4992893;28;20179;-67
2022/05/25 07:05:54;;;;;;;3.03;2.90;;;20.00;99.90;;;;;;5010931;28;20635;-67
2022/05/25 07:08:19;;;;;;;3.37;3.17;;;20.40;99.90;;;;;;5010694;28;20204;-67
2022/05/25 07:10:46;;;;;;;3.20;3.00;;;20.30;99.90;;;;;;5010922;28;20544;-67
2022/05/25 07:13:17;;;;;;;3.40;3.20;;;19.70;99.90;;;;;;4993428;28;20188;-67
2022/05/25 07:15:43;;;;;;;3.23;3.10;;;19.40;99.90;;;;;;5014312;28;20604;-67
2022/05/25 07:18:10;;;;;;;3.40;3.20;;;18.80;99.90;;;;;;5014044;28;20262;-67
2022/05/25 07:20:36;;;;;;;3.33;3.23;;;19.00;99.90;;;;;;5014356;28;20346;-67
2022/05/25 07:23:02;;;;;;;3.50;3.20;;;19.30;99.90;;;;;;5014153;28;20187;-67
2022/05/25 07:25:28;;;;;;;3.73;3.53;;;19.70;99.90;;;;;;5014082;28;20223;-67
2022/05/25 07:27:54;;;;;;;3.40;3.20;;;20.10;99.90;;;;;;5013798;28;20212;-67
2022/05/25 07:30:20;;;;;;;3.33;3.13;;;20.30;99.90;;;;;;4996926;28;20267;-67
2022/05/25 07:32:46;;;;;;;3.30;3.00;;;20.20;99.90;;;;;;5013852;28;20242;-67
2022/05/25 07:35:15;;;;;;;3.07;2.97;;;19.90;99.90;;;;;;5013823;28;20208;-67
2022/05/25 07:37:45;;;;;;;3.27;3.07;;;19.60;99.90;;;;;;4996210;28;20207;-67
2022/05/25 07:40:15;;;;;;;3.57;3.27;;;19.40;99.90;;;;;;5013733;28;20250;-67
2022/05/25 07:42:44;;;;;;;3.43;3.30;;;19.80;99.90;;;;;;5014012;28;20168;-67
2022/05/25 07:45:10;;;;;;;3.00;2.90;;;20.10;99.90;;;;;;5013379;28;20184;-67
2022/05/25 07:47:36;;;;;;;3.00;2.90;;;20.20;99.90;;;;;;5013232;28;20210;-67
2022/05/25 07:50:03;;;;;;;3.37;3.20;;;20.50;99.90;;;;;;5013844;28;20267;-67
2022/05/25 07:52:33;;;;;;;15.70;3.53;;;20.90;99.90;;;;;;5013858;28;20262;-67
2022/05/25 07:54:58;;;;;;;3.13;3.00;;;20.70;99.90;;;;;;5012991;28;20244;-67
2022/05/25 07:57:24;;;;;;;3.33;3.13;;;20.70;99.90;;;;;;5013779;28;20219;-67
2022/05/25 07:59:50;;;;;;;3.20;3.03;;;20.70;99.90;;;;;;5013411;28;20541;-67
2022/05/25 08:07:52;;;;;;;3.13;3.03;;;21.30;99.90;;;;;;5013344;28;20965;-67
2022/05/25 08:10:24;;;;;;;2.88;2.78;;;21.60;99.90;;;;;;5013143;28;20188;-67
2022/05/25 08:12:52;;;;;;;2.70;2.60;;;21.40;99.90;;;;;;5013045;28;20618;-67
2022/05/25 08:15:18;;;;;;;2.95;2.78;;;21.50;99.90;;;;;;5012575;28;20204;-67
2022/05/25 08:17:44;;;;;;;2.60;2.50;;;21.70;99.90;;;;;;5012785;28;20218;-67
2022/05/25 08:20:11;;;;;;;2.90;2.58;;;21.80;99.90;;;;;;4995608;28;20547;-64
2022/05/25 08:22:39;;;;;;;4.32;2.72;;;22.20;99.90;;;;;;5013049;28;20172;-64
2022/05/25 08:25:09;;;;;;;2.60;2.50;;;22.30;99.90;;;;;;5012630;28;20234;-65
2022/05/25 08:27:39;;;;;;;2.65;2.55;;;22.30;99.90;;;;;;5012701;28;20242;-64
2022/05/25 08:30:10;;;;;;;3.00;2.80;;;22.30;99.90;;;;;;5013273;28;20628;-66
2022/05/25 08:32:36;;;;;;;3.00;2.90;;;22.70;99.90;;;;;;5012864;28;20611;-66
2022/05/25 08:35:03;;;;;;;3.03;2.70;;;22.10;99.90;;;;;;5012947;28;20234;-66
2022/05/25 08:37:28;;;;;;;2.63;2.50;;;21.90;99.90;;;;;;5012651;28;20612;-66
2022/05/25 08:39:54;;;;;;;3.10;2.80;;;21.40;99.90;;;;;;5012957;28;20251;-66
2022/05/25 08:42:22;;;;;;;2.50;2.40;;;21.10;99.90;;;;;;5012718;28;20255;-66
2022/05/25 08:44:49;;;;;;;3.20;2.95;;;21.50;99.90;;;;;;5012502;28;20184;-66
2022/05/25 08:47:16;;;;;;;2.85;2.63;;;21.40;99.90;;;;;;5012669;28;20357;-66
2022/05/25 08:49:44;;;;;;;2.67;2.50;;;21.80;99.90;;;;;;5012843;28;20238;-66
2022/05/25 08:52:24;;;;;;;2.90;2.70;;;22.00;99.90;;;;;;5012605;28;20176;-66
2022/05/25 08:54:50;;;;;;;2.80;2.70;;;22.20;99.90;;;;;;5012400;28;20204;-66
2022/05/25 08:57:23;;;;;;;3.25;3.08;;;22.30;99.90;;;;;;5012444;28;20199;-66
2022/05/25 09:00:13;;;;;;;2.95;2.70;;;22.40;99.90;;;;;;5012526;28;20222;-66
2022/05/25 09:02:57;;;;;;;2.95;2.85;;;22.70;99.90;;;;;;5012781;28;20181;-66
2022/05/25 09:05:35;;;;;;;2.60;2.50;;;22.60;99.90;;;;;;5011947;28;20651;-66
2022/05/25 09:08:21;;;;;;;3.00;2.80;;;23.00;99.90;;;;;;5012540;28;20211;-66
2022/05/25 09:10:58;;;;;;;2.83;2.72;;;22.90;99.90;;;;;;4992908;28;20537;-66
2022/05/25 09:13:36;;;;;;;2.90;2.70;;;22.40;99.90;;;;;;4994389;28;20169;-66
2022/05/25 09:16:16;;;;;;;2.85;2.70;;;22.00;99.90;;;;;;5012440;28;20478;-66
2022/05/25 09:19:05;;;;;;;3.30;3.10;;;22.30;99.90;;;;;;5010521;28;20188;-66
2022/05/25 09:21:36;;;;;;;2.50;2.40;;;22.40;99.90;;;;;;5012286;28;20200;-66
2022/05/25 09:24:08;;;;;;;2.60;2.40;;;22.80;99.90;;;;;;5011814;28;20191;-66
2022/05/25 09:26:33;;;;;;;2.80;2.70;;;23.50;99.90;;;;;;5012162;28;20721;-66
2022/05/25 09:29:04;;;;;;;3.10;2.80;;;24.00;99.90;;;;;;5012102;28;20180;-66
2022/05/25 09:31:36;;;;;;;2.60;2.50;;;24.00;99.90;;;;;;5011830;28;20179;-66
2022/05/25 09:34:07;;;;;;;2.58;2.47;;;23.90;99.90;;;;;;5011816;28;20169;-66
2022/05/25 09:36:41;;;;;;;2.70;2.50;;;23.90;99.90;;;;;;5010908;28;20581;-66
2022/05/25 09:39:24;;;;;;;2.80;2.70;;;23.50;99.90;;;;;;5011887;28;20178;-66
2022/05/25 09:41:57;;;;;;;2.80;2.70;;;23.50;99.90;;;;;;5011703;28;20250;-66
2022/05/25 09:44:23;;;;;;;2.50;2.40;;;23.40;99.90;;;;;;5011178;28;20199;-67
2022/05/25 09:46:58;;;;;;;2.80;2.70;;;23.50;99.90;;;;;;5011431;28;20608;-66
2022/05/25 09:49:38;;;;;;;2.70;2.60;;;23.40;99.90;;;;;;5011803;28;20601;-66
2022/05/25 09:52:15;;;;;;;2.92;2.83;;;23.00;99.90;;;;;;4993763;28;20172;-66
2022/05/25 09:54:50;;;;;;;2.67;2.55;;;23.30;99.90;;;;;;5011195;28;20293;-66
2022/05/25 09:57:18;;;;;;;2.70;2.60;;;23.40;99.90;;;;;;5011710;28;20610;-66
2022/05/25 09:59:52;;;;;;;2.65;2.55;;;23.10;99.90;;;;;;5011397;28;20199;-66
2022/05/25 10:02:18;;;;;;;2.85;2.75;;;22.60;99.90;;;;;;5011581;28;20577;-66
2022/05/25 10:04:51;;;;;;;2.75;2.65;;;22.70;99.90;;;;;;5010893;28;20183;-66
2022/05/25 10:07:32;;;;;;;2.85;2.75;;;22.60;99.90;;;;;;5011603;28;20207;-66
2022/05/25 10:10:05;;;;;;;3.08;2.97;;;22.60;99.90;;;;;;5011207;28;20619;-66
2022/05/25 10:12:33;;;;;;;3.08;2.47;;;22.80;99.90;;;;;;5011554;28;20259;-66
2022/05/25 10:15:30;;;;;;;2.70;2.60;;;23.40;99.90;;;;;;5010900;28;20203;-66
2022/05/25 10:17:55;;;;;;;2.80;2.70;;;23.20;99.90;;;;;;5069505;22;20317;-65
2022/05/25 10:20:48;;;;;;;2.80;2.70;;;23.20;99.90;;;;;;5071203;28;20683;-65
2022/05/25 10:23:23;;;;;;;3.33;3.13;;;23.00;99.90;;;;;;5059079;28;20181;-65
2022/05/25 10:26:26;;;;;;;2.90;2.70;;;22.80;99.90;;;;;;5051117;28;20194;-67
2022/05/25 10:28:57;;;;;;;3.10;2.75;;;22.60;99.90;;;;;;5045669;28;20314;-66
2022/05/25 10:37:00;;;;;;;2.70;2.60;;;22.70;99.90;;;;;;5050969;28;20886;-66
2022/05/25 10:39:28;;;;;;;2.63;2.53;;;23.60;99.90;;;;;;5031251;28;20543;-67
2022/05/25 10:42:26;;;;;;;2.70;2.60;;;24.10;99.90;;;;;;5030986;28;20195;-65
2022/05/25 10:45:15;;;;;;;2.75;2.55;;;24.50;99.90;;;;;;5011352;28;20188;-66
2022/05/25 10:47:54;;;;;;;2.67;2.53;;;24.20;99.90;;;;;;5022202;28;20210;-67
2022/05/25 10:50:26;;;;;;;2.67;2.58;;;24.20;99.90;;;;;;5054175;28;20194;-65
2022/05/25 10:52:59;;;;;;;2.60;2.45;;;24.50;99.90;;;;;;5035697;28;20190;-67
2022/05/25 10:55:34;;;;;;;2.97;2.70;;;24.90;99.90;;;;;;5038786;28;20194;-66
2022/05/25 10:58:19;;;;;;;3.00;2.90;;;24.80;99.90;;;;;;5054663;28;20186;-67
2022/05/25 11:01:40;;;;;;;2.70;2.55;;;25.00;99.90;;;;;;5047356;28;20175;-66
2022/05/25 11:04:40;;;;;;;2.80;2.70;;;24.20;99.90;;;;;;4985773;28;20688;-66
2022/05/25 11:07:25;;;;;;;3.13;3.00;;;23.30;99.90;;;;;;4990613;28;20267;-66
2022/05/25 11:10:09;;;;;;;3.47;3.28;;;22.20;99.90;;;;;;5010058;28;20245;-66
2022/05/25 11:12:56;;;;;;;2.95;2.85;;;21.80;99.90;;;;;;5034699;28;20680;-64
2022/05/25 11:15:42;;;;;;;2.80;2.70;;;21.70;99.90;;;;;;5035698;28;20207;-65
2022/05/25 11:18:33;;;;;;;2.80;2.70;;;21.70;99.90;;;;;;5054290;28;20202;-65
2022/05/25 11:21:02;;;;;;;3.27;3.17;;;21.00;99.90;;;;;;5048126;28;20799;-65
2022/05/25 11:23:48;;;;;;;3.20;3.10;;;20.80;99.90;;;;;;5038649;28;20175;-64
2022/05/25 11:26:46;;;;;;;3.27;3.00;;;20.50;99.90;;;;;;5053538;28;20167;-65
2022/05/25 11:29:42;;;;;;;3.20;3.00;;;20.40;99.90;;;;;;5044319;28;20548;-65
2022/05/25 11:32:38;;;;;;;2.80;2.70;;;20.90;99.90;;;;;;5034667;28;20203;-66
2022/05/25 11:35:14;;;;;;;2.90;2.80;;;21.70;99.90;;;;;;5049550;28;20202;-66
2022/05/25 11:37:56;;;;;;;2.90;2.80;;;21.90;99.90;;;;;;5036813;28;20195;-65
2022/05/25 11:40:36;;;;;;;2.80;2.70;;;22.60;99.90;;;;;;5052808;28;20182;-67
2022/05/25 11:43:43;;;;;;;3.00;2.80;;;22.80;99.90;;;;;;5054460;28;20649;-66
2022/05/25 11:46:40;;;;;;;3.50;3.00;;;22.90;99.90;;;;;;5034777;28;20176;-64
2022/05/25 11:49:24;;;;;;;4.93;2.90;;;22.70;99.90;;;;;;5041505;28;20197;-67
2022/05/25 11:52:09;;;;;;;3.83;3.30;;;21.50;99.90;;;;;;5045690;28;20182;-67
2022/05/25 11:54:40;;;;;;;3.13;3.03;;;21.10;99.90;;;;;;5033617;28;20290;-67
2022/05/25 11:57:30;;;;;;;2.97;2.87;;;20.80;99.90;;;;;;5034105;28;20195;-66
2022/05/25 12:00:04;;;;;;;3.05;2.95;;;21.40;99.90;;;;;;5033326;28;20172;-66
2022/05/25 12:02:57;;;;;;;2.75;2.65;;;22.30;99.90;;;;;;5045077;28;20512;-65
2022/05/25 12:05:50;;;;;;;2.92;2.72;;;23.00;99.90;;;;;;5053360;28;20171;-65
2022/05/25 12:08:26;;;;;;;4.28;2.83;;;23.20;99.90;;;;;;5034681;28;20203;-66
2022/05/25 12:11:17;;;;;;;2.75;2.55;;;23.80;99.90;;;;;;5040838;28;20197;-66
2022/05/25 12:13:51;;;;;;;2.97;2.83;;;24.50;99.90;;;;;;5048102;28;20262;-66
2022/05/25 12:16:40;;;;;;;2.55;2.45;;;25.50;99.90;;;;;;5033394;28;20206;-66
2022/05/25 12:19:12;;;;;;;2.85;2.60;;;25.40;99.90;;;;;;5033409;28;20186;-66
2022/05/25 12:21:45;;;;;;;2.70;2.60;;;24.80;99.90;;;;;;5033497;28;20217;-66
2022/05/25 12:24:17;;;;;;;2.83;2.72;;;23.80;99.90;;;;;;5032841;28;20662;-65
2022/05/25 12:26:44;;;;;;;2.78;2.67;;;24.00;99.90;;;;;;5032510;28;20250;-65
2022/05/25 12:29:22;;;;;;;2.50;2.40;;;24.10;99.90;;;;;;5033437;28;20222;-66
2022/05/25 12:31:55;;;;;;;2.72;2.60;;;24.30;99.90;;;;;;5033810;28;20179;-67
2022/05/25 12:34:32;;;;;;;2.80;2.60;;;24.60;99.90;;;;;;5032769;28;20195;-66
2022/05/25 12:36:59;;;;;;;2.97;2.78;;;25.00;99.90;;;;;;5032948;28;20179;-66
2022/05/25 12:39:43;;;;;;;2.58;2.47;;;25.80;99.90;;;;;;5033024;28;20175;-66
2022/05/25 12:42:24;;;;;;;2.90;2.80;;;26.70;99.90;;;;;;5033088;28;20167;-66
2022/05/25 12:51:02;;;;;;;3.20;3.00;;;26.10;98.90;;;;;;5032812;28;20266;-66
2022/05/25 12:53:30;;;;;;;2.70;2.60;;;25.90;97.70;;;;;;5032570;28;20250;-66
2022/05/25 12:55:59;;;;;;;2.80;2.67;;;25.90;98.70;;;;;;5032644;28;20210;-65
2022/05/25 12:58:41;;;;;;;2.90;2.80;;;25.40;97.50;;;;;;5032452;28;20187;-66
2022/05/25 13:01:22;;;;;;;2.67;2.58;;;24.60;95.90;;;;;;5033066;28;20229;-66
2022/05/25 13:03:47;;;;;;;3.25;3.08;;;24.10;97.30;;;;;;5032517;28;20593;-65
2022/05/25 13:06:21;;;;;;;2.97;2.88;;;23.30;99.70;;;;;;5032346;28;20206;-66
2022/05/25 13:08:47;;;;;;;2.95;2.85;;;23.20;98.60;;;;;;5032555;28;20187;-66
2022/05/25 13:11:45;;;;;;;2.90;2.80;;;22.70;99.90;;;;;;5031540;28;20705;-65
2022/05/25 13:14:16;;;;;;;3.00;2.90;;;22.40;99.50;;;;;;5031921;28;20601;-64
2022/05/25 13:17:03;;;;;;;3.00;2.90;;;22.80;99.90;;;;;;5030386;28;20172;-66
2022/05/25 13:19:33;;;;;;;2.70;2.60;;;23.40;99.90;;;;;;5032178;28;20175;-66
2022/05/25 13:22:18;;;;;;;2.85;2.70;;;23.50;99.90;;;;;;5032718;28;20167;-66
2022/05/25 13:25:08;;;;;;;2.85;2.75;;;22.90;98.70;;;;;;5032187;28;20261;-66
2022/05/25 13:28:04;;;;;;;2.97;2.78;;;22.50;99.90;;;;;;5032956;28;20195;-66
2022/05/25 13:30:56;;;;;;;2.60;2.50;;;22.90;99.90;;;;;;5033005;28;20171;-66
2022/05/25 13:33:28;;;;;;;3.00;2.90;;;23.00;98.90;;;;;;5043872;28;20190;-65
2022/05/25 13:36:03;;;;;;;3.00;2.80;;;22.80;99.90;;;;;;5032475;28;20222;-66
2022/05/25 13:38:50;;;;;;;3.00;2.80;;;22.50;98.90;;;;;;5031810;28;20202;-66
2022/05/25 13:41:26;;;;;;;3.15;3.03;;;22.40;99.30;;;;;;5032811;28;20184;-66